createdAt,value
2022-12-03T02:17:43.628Z,5.70
2022-12-03T02:20:10.952Z,5.80
2022-12-03T02:23:05.180Z,5.70
2022-12-03T02:25:54.842Z,5.60
2022-12-03T02:28:18.946Z,6.22
2022-12-03T02:30:45.573Z,5.82
2022-12-03T02:33:10.327Z,6.02
2022-12-03T02:35:51.640Z,5.58
2022-12-03T02:38:25.073Z,6.57
2022-12-03T02:40:55.466Z,6.75
2022-12-03T02:43:39.304Z,5.50
2022-12-03T02:46:04.494Z,5.98
2022-12-03T02:47:14.378Z,5.50
2022-12-03T02:49:50.126Z,6.03
2022-12-03T02:53:33.017Z,5.42
2022-12-03T02:56:00.821Z,6.52
2022-12-03T02:58:28.728Z,5.65
2022-12-03T03:00:56.003Z,5.65
2022-12-03T03:03:24.991Z,5.50
2022-12-03T03:05:50.604Z,4.80
2022-12-03T03:08:37.553Z,5.48
2022-12-03T03:11:03.253Z,6.17
2022-12-03T03:13:30.517Z,6.18
2022-12-03T03:15:56.729Z,5.12
2022-12-03T03:18:21.839Z,5.25
2022-12-03T03:20:47.219Z,5.28
2022-12-03T03:23:16.131Z,6.17
2022-12-03T03:25:45.325Z,5.88
2022-12-03T03:28:10.365Z,5.37
2022-12-03T03:30:38.201Z,6.15
2022-12-03T03:33:06.198Z,5.37
2022-12-03T03:35:32.908Z,6.00
2022-12-03T03:37:59.075Z,5.55
2022-12-03T03:40:28.080Z,4.98
2022-12-03T03:42:55.171Z,4.72
2022-12-03T03:45:29.110Z,5.37
2022-12-03T03:47:54.619Z,5.45
2022-12-03T03:50:21.419Z,5.35
2022-12-03T03:52:47.214Z,5.32
2022-12-03T03:55:13.131Z,6.42
2022-12-03T03:57:39.261Z,6.02
2022-12-03T04:00:07.529Z,6.18
2022-12-03T04:02:54.055Z,5.18
2022-12-03T04:05:21.650Z,5.40
2022-12-03T04:07:46.347Z,5.53
2022-12-03T04:10:32.003Z,5.70
2022-12-03T04:13:14.819Z,4.65
2022-12-03T04:15:38.436Z,4.78
2022-12-03T04:18:22.429Z,5.58
2022-12-03T04:20:48.923Z,5.15
2022-12-03T04:23:31.258Z,4.65
2022-12-03T04:26:13.612Z,5.40
2022-12-03T04:28:57.022Z,5.82
2022-12-03T04:31:42.269Z,5.13
2022-12-03T04:34:43.313Z,4.85
2022-12-03T04:37:08.685Z,5.57
2022-12-03T04:39:33.688Z,5.20
2022-12-03T04:42:16.207Z,5.90
2022-12-03T04:44:41.035Z,5.32
2022-12-03T04:47:10.386Z,5.75
2022-12-03T04:49:37.078Z,5.82
2022-12-03T04:52:02.362Z,5.55
2022-12-03T04:54:28.052Z,5.98
2022-12-03T04:56:52.636Z,5.25
2022-12-03T04:59:17.232Z,5.88
2022-12-03T05:01:42.503Z,5.08
2022-12-03T05:04:09.093Z,5.95
2022-12-03T05:06:33.694Z,6.65
2022-12-03T05:08:58.235Z,6.62
2022-12-03T05:11:25.518Z,7.55
2022-12-03T05:13:51.847Z,6.83
2022-12-03T05:16:15.561Z,6.90
2022-12-03T05:18:39.811Z,6.73
2022-12-03T05:21:22.297Z,6.72
2022-12-03T05:23:47.512Z,6.45
2022-12-03T05:26:13.560Z,6.70
2022-12-03T05:28:37.282Z,7.32
2022-12-03T05:31:02.612Z,6.88
2022-12-03T05:33:28.830Z,6.58
2022-12-03T05:35:53.048Z,7.54
2022-12-03T05:38:23.819Z,6.47
2022-12-03T05:40:47.821Z,8.48
2022-12-03T05:43:30.199Z,7.45
2022-12-03T05:46:13.707Z,7.52
2022-12-03T05:48:37.866Z,6.87
2022-12-03T05:51:02.215Z,6.46
2022-12-03T05:53:26.545Z,7.08
2022-12-03T05:54:36.339Z,7.97
2022-12-03T05:55:45.972Z,7.73
2022-12-03T05:56:55.056Z,8.02
2022-12-03T05:59:19.849Z,7.32
2022-12-03T06:00:33.303Z,9.60
2022-12-03T06:02:59.123Z,7.27
2022-12-03T10:40:30.921Z,13.00
2022-12-03T10:41:41.887Z,11.50
2022-12-03T10:42:50.736Z,6.10
2022-12-03T10:44:25.250Z,7.10
2022-12-03T10:45:36.160Z,7.75
2022-12-03T10:48:14.480Z,7.57
2022-12-03T10:49:24.145Z,6.28
2022-12-03T10:50:34.794Z,5.00
2022-12-03T10:51:46.206Z,5.38
2022-12-03T10:54:18.732Z,6.27
2022-12-03T10:56:48.481Z,5.42
2022-12-03T10:59:21.779Z,3.75
2022-12-03T11:01:46.191Z,5.75
2022-12-03T11:02:57.233Z,5.78
2022-12-03T11:04:07.811Z,6.57
2022-12-03T11:06:35.003Z,5.98
2022-12-03T11:09:05.272Z,6.18
2022-12-03T11:11:32.165Z,6.93
2022-12-03T11:14:02.003Z,6.35
2022-12-03T11:15:16.193Z,7.15
2022-12-03T11:16:43.971Z,7.68
2022-12-03T11:17:54.186Z,10.68
2022-12-03T11:20:28.317Z,8.33
2022-12-03T11:23:15.707Z,8.24
2022-12-03T11:25:50.872Z,6.98
2022-12-03T11:28:33.984Z,6.73
2022-12-03T11:29:55.472Z,6.65
2022-12-03T11:32:46.604Z,6.62
2022-12-03T11:35:41.722Z,7.38
2022-12-03T11:37:12.064Z,7.50
2022-12-03T11:40:24.444Z,7.15
2022-12-03T11:42:50.354Z,6.53
2022-12-03T11:44:03.063Z,5.07
2022-12-03T11:45:24.701Z,6.77
2022-12-03T11:48:01.328Z,9.75
2022-12-03T11:53:34.927Z,7.15
2022-12-03T11:54:47.350Z,8.42
2022-12-03T11:57:39.528Z,7.42
2022-12-03T11:58:48.834Z,8.25
2022-12-03T12:01:23.727Z,7.33
2022-12-03T12:03:50.383Z,8.17
2022-12-03T12:07:36.998Z,7.88
2022-12-03T12:08:58.746Z,8.30
2022-12-03T12:11:34.872Z,6.30
2022-12-03T12:12:54.426Z,7.30
2022-12-03T12:16:54.644Z,7.45
2022-12-03T12:18:39.982Z,7.80
2022-12-03T12:19:54.199Z,9.32
2022-12-03T12:22:54.975Z,12.42
2022-12-03T12:28:36.952Z,8.70
2022-12-03T12:31:12.513Z,9.90
2022-12-03T12:33:54.607Z,9.73
2022-12-03T12:36:40.677Z,7.68
2022-12-03T12:39:15.862Z,8.33
2022-12-03T12:41:47.749Z,8.80
2022-12-03T12:42:59.581Z,7.87
2022-12-03T12:44:15.112Z,8.17
2022-12-03T12:45:27.155Z,7.62
2022-12-03T12:46:47.827Z,8.85
2022-12-03T12:47:56.045Z,9.02
2022-12-03T12:50:27.059Z,9.40
2022-12-03T12:54:14.984Z,8.43
2022-12-03T12:56:41.699Z,8.75
2022-12-03T12:57:51.429Z,8.83
2022-12-03T13:00:29.016Z,7.85
2022-12-03T13:01:39.453Z,7.60
2022-12-03T13:04:22.212Z,8.98
2022-12-03T13:05:40.675Z,7.45
2022-12-03T13:08:23.433Z,7.12
2022-12-03T13:09:33.733Z,7.02
2022-12-03T13:10:43.483Z,7.45
2022-12-03T13:13:23.435Z,7.25
2022-12-03T13:16:01.983Z,8.32
2022-12-03T13:20:07.625Z,8.87
2022-12-03T13:22:45.399Z,8.90
2022-12-03T13:26:40.603Z,11.93
2022-12-03T13:27:54.986Z,10.03
2022-12-03T13:30:33.243Z,6.92
2022-12-03T13:33:08.160Z,9.57
2022-12-03T13:35:38.180Z,9.28
2022-12-03T13:36:53.559Z,8.63
2022-12-03T13:38:00.923Z,7.55
2022-12-03T13:40:35.413Z,7.92
2022-12-03T13:42:05.163Z,7.45
2022-12-03T13:43:20.437Z,8.40
2022-12-03T13:44:31.676Z,8.23
2022-12-03T13:45:43.538Z,8.27
2022-12-03T13:48:35.275Z,7.90
2022-12-03T13:53:02.762Z,9.96
2022-12-03T13:54:16.232Z,9.45
2022-12-03T13:55:29.299Z,9.63
2022-12-03T13:57:55.632Z,10.32
2022-12-03T13:59:05.121Z,8.82
2022-12-03T14:01:31.660Z,8.45
2022-12-03T14:02:41.015Z,8.15
2022-12-03T14:05:06.545Z,9.10
2022-12-03T14:06:15.445Z,7.98
2022-12-03T14:07:25.218Z,7.88
2022-12-03T14:08:34.920Z,9.05
2022-12-03T14:09:44.099Z,10.60
2022-12-03T14:10:59.895Z,9.20
2022-12-03T14:13:37.922Z,11.68
2022-12-03T14:14:48.439Z,13.03
2022-12-03T14:15:58.396Z,15.75
2022-12-03T14:17:10.082Z,11.63
2022-12-03T14:19:33.689Z,9.98
2022-12-03T14:20:43.252Z,10.42
2022-12-03T14:21:52.908Z,11.73
2022-12-03T14:23:02.112Z,9.92
2022-12-03T14:25:27.446Z,10.05
2022-12-03T14:27:52.364Z,11.75
2022-12-03T14:29:07.168Z,11.45
2022-12-03T14:31:30.492Z,11.43
2022-12-03T14:33:54.461Z,12.38
2022-12-03T14:35:09.905Z,13.85
2022-12-03T14:37:31.431Z,12.68
2022-12-03T18:28:31.023Z,11.07
2022-12-03T18:29:39.685Z,10.47
2022-12-03T18:30:52.453Z,10.47
2022-12-03T18:32:00.430Z,10.63
2022-12-03T18:33:10.414Z,9.04
2022-12-03T18:34:19.032Z,10.25
2022-12-03T18:35:28.987Z,8.45
2022-12-03T18:37:54.120Z,8.43
2022-12-03T18:39:08.156Z,8.88
2022-12-03T18:40:21.659Z,8.33
2022-12-03T18:41:30.510Z,9.00
2022-12-03T18:42:39.644Z,8.35
2022-12-03T18:43:49.438Z,8.67
2022-12-03T18:46:31.220Z,8.25
2022-12-03T18:48:49.059Z,9.28
2022-12-03T18:49:58.950Z,9.65
2022-12-03T18:52:33.918Z,8.27
2022-12-03T18:53:43.414Z,7.08
2022-12-03T18:54:52.525Z,9.30
2022-12-03T18:56:02.131Z,9.12
2022-12-03T18:57:11.372Z,9.42
2022-12-03T18:59:36.646Z,10.60
2022-12-03T19:00:45.839Z,10.05
2022-12-03T19:01:54.687Z,9.95
2022-12-03T19:04:19.666Z,10.32
2022-12-03T19:06:45.561Z,9.73
2022-12-03T19:07:58.063Z,9.32
2022-12-03T19:09:07.281Z,8.40
2022-12-03T19:11:34.157Z,9.85
2022-12-03T19:12:44.385Z,9.05
2022-12-03T19:15:10.199Z,9.32
2022-12-03T19:17:35.052Z,9.40
2022-12-03T19:19:59.967Z,10.17
2022-12-03T19:22:27.651Z,12.60
2022-12-03T19:24:54.376Z,12.33
2022-12-03T19:26:06.245Z,9.78
2022-12-03T19:27:17.130Z,12.70
2022-12-03T19:29:48.805Z,9.72
2022-12-03T19:32:34.452Z,11.80
2022-12-03T19:34:52.433Z,9.32
2022-12-03T19:36:06.372Z,10.43
2022-12-03T19:38:31.290Z,10.35
2022-12-03T19:39:41.154Z,10.92
2022-12-03T19:42:22.453Z,9.95
2022-12-03T19:44:47.976Z,10.47
2022-12-03T19:45:58.422Z,10.73
2022-12-03T19:47:09.990Z,10.12
2022-12-03T19:48:20.747Z,11.52
2022-12-03T19:51:02.892Z,9.03
2022-12-03T19:52:03.276Z,7.55
2022-12-03T19:54:27.338Z,9.97
2022-12-03T19:55:36.267Z,9.93
2022-12-03T19:56:47.030Z,9.85
2022-12-03T19:57:55.740Z,9.55
2022-12-03T19:59:04.946Z,9.47
2022-12-03T20:01:36.339Z,8.73
2022-12-03T20:04:04.024Z,8.28
2022-12-03T20:06:32.257Z,8.43
2022-12-03T20:07:41.901Z,10.63
2022-12-03T20:09:01.873Z,10.42
2022-12-03T20:11:30.804Z,9.78
2022-12-03T20:13:57.791Z,8.63
2022-12-03T20:16:43.647Z,10.35
2022-12-03T20:19:11.833Z,8.47
2022-12-03T20:20:21.484Z,10.65
2022-12-03T20:23:02.904Z,9.60
2022-12-03T20:24:15.222Z,9.98
2022-12-03T20:26:40.347Z,10.20
2022-12-03T20:29:08.860Z,8.75
2022-12-03T20:31:33.253Z,7.87
2022-12-03T20:32:45.837Z,9.25
2022-12-03T20:35:13.680Z,9.38
2022-12-03T20:37:41.428Z,11.03
2022-12-03T20:38:55.624Z,10.55
2022-12-03T20:41:21.249Z,10.02
2022-12-03T20:43:45.405Z,10.13
2022-12-03T20:44:54.756Z,8.98
2022-12-03T20:47:27.756Z,9.53
2022-12-03T20:49:54.570Z,10.93
2022-12-03T20:52:21.930Z,7.88
2022-12-03T20:53:31.272Z,7.03
2022-12-03T20:55:57.995Z,8.83
2022-12-03T20:57:07.885Z,9.13
2022-12-03T20:59:32.320Z,6.92
2022-12-03T21:00:41.229Z,7.05
2022-12-03T21:01:51.077Z,7.78
2022-12-03T21:03:06.022Z,6.60
2022-12-03T21:04:16.610Z,8.43
2022-12-03T21:06:42.732Z,9.32
2022-12-03T21:09:07.896Z,8.32
2022-12-03T21:11:50.514Z,9.80
2022-12-03T21:13:00.308Z,8.30
2022-12-03T21:15:26.150Z,11.40
2022-12-03T21:17:07.422Z,9.25
2022-12-03T21:19:07.589Z,8.10
2022-12-03T21:21:39.618Z,9.22
2022-12-03T21:24:08.600Z,8.42
2022-12-03T21:26:32.907Z,7.93
2022-12-03T21:28:57.416Z,8.93
2022-12-03T21:31:26.298Z,7.50
2022-12-03T21:32:36.160Z,9.27
2022-12-03T21:35:01.328Z,8.58
2022-12-03T21:36:14.474Z,7.90
2022-12-03T21:38:39.445Z,8.78
2022-12-03T21:39:48.567Z,8.85
2022-12-03T21:40:58.483Z,9.25
2022-12-03T21:42:19.192Z,8.45
2022-12-03T21:44:32.724Z,9.70
2022-12-03T21:45:42.404Z,9.87
2022-12-03T21:47:11.221Z,9.85
2022-12-03T21:48:02.051Z,10.65
2022-12-03T21:49:11.878Z,12.12
2022-12-03T21:51:35.856Z,12.23
2022-12-03T21:53:59.375Z,10.92
2022-12-03T21:55:10.042Z,11.07
2022-12-03T21:57:36.234Z,11.50
2022-12-03T21:58:46.437Z,12.35
2022-12-03T22:02:39.776Z,10.25
2022-12-03T22:05:24.431Z,11.55
2022-12-03T22:07:48.980Z,10.48
2022-12-03T22:08:58.254Z,12.38
2022-12-03T22:11:24.980Z,11.15
2022-12-03T22:13:49.576Z,12.92
2022-12-03T22:14:58.806Z,11.38
2022-12-03T22:23:12.302Z,11.38
2022-12-03T22:25:36.775Z,12.67
2022-12-03T22:28:03.383Z,10.93
2022-12-03T22:30:27.720Z,10.33
2022-12-03T22:32:53.305Z,11.52
2022-12-03T22:35:18.068Z,11.90
2022-12-03T22:37:42.452Z,10.70
2022-12-03T22:40:08.276Z,9.50
2022-12-03T22:42:34.842Z,11.30
2022-12-03T22:45:19.268Z,11.13
2022-12-03T22:46:32.697Z,12.00
2022-12-03T22:48:57.110Z,10.73
2022-12-03T22:51:25.292Z,11.82
2022-12-03T22:53:58.477Z,11.90
2022-12-03T22:55:08.605Z,11.85
2022-12-03T22:56:19.054Z,11.42
2022-12-03T22:57:28.677Z,11.53
2022-12-03T22:59:53.814Z,11.52
2022-12-03T23:01:04.540Z,12.13
2022-12-03T23:02:14.206Z,11.70
2022-12-03T23:03:24.043Z,10.80
2022-12-03T23:06:12.130Z,10.93
2022-12-03T23:08:36.090Z,11.58
2022-12-03T23:11:01.128Z,12.27
2022-12-03T23:12:09.723Z,12.13
2022-12-03T23:14:36.264Z,10.77
2022-12-03T23:17:02.271Z,11.65
2022-12-03T23:18:12.949Z,12.50
2022-12-03T23:19:23.288Z,12.05
2022-12-03T23:20:33.073Z,12.10
2022-12-03T23:22:58.537Z,11.80
2022-12-03T23:24:08.580Z,10.45
2022-12-03T23:26:37.821Z,11.48
2022-12-03T23:29:04.004Z,11.88
2022-12-03T23:30:16.643Z,12.72
2022-12-03T23:33:05.782Z,11.07
2022-12-03T23:34:14.620Z,12.25
2022-12-03T23:36:38.653Z,12.40
2022-12-03T23:37:47.771Z,11.25
2022-12-03T23:40:14.512Z,12.15
2022-12-03T23:42:38.908Z,11.77
2022-12-03T23:43:49.012Z,11.50
2022-12-03T23:46:34.457Z,12.10
2022-12-03T23:48:59.445Z,11.85
2022-12-03T23:51:27.695Z,12.27
2022-12-03T23:53:45.524Z,10.82
2022-12-03T23:54:55.171Z,11.67
2022-12-03T23:57:24.521Z,11.75
2022-12-03T23:59:50.202Z,9.10
